Oscoda, MI

12:09 PM EST on December 12, 2019 (GMT -0500)
Oscoda-Wurtsmith

Weather History for KOSC - October, 2019

Change the Weather History Date:

Friday, October 18, 2019

  Actual Average Record
Temperature  
Mean Temperature 42 °F -  
Max Temperature 50 °F 53 °F 76 °F (2016)
Min Temperature 32 °F 37 °F 23 °F (2018)
Degree Days  
Heating Degree Days 23    
Moisture  
Dew Point 36 °F    
Average Humidity 79    
Maximum Humidity 92    
Minimum Humidity 58    
Precipitation  
Precipitation 0.00 in - - ()
Sea Level Pressure  
Sea Level Pressure 30.05 in    
Wind  
Wind Speed 4 mph (NNW)    
Max Wind Speed 9 mph    
Max Gust Speed -    
Visibility 10 miles    
Events      
Averages and records for this station are not official NWS values.
T = Trace of Precipitation, MM = Missing Value Source: NWS Daily Summary

Daily Weather History Graph

Daily Weather History Graph

Search for Another Location

Airport or City:

Astronomy

Oct. 18, 2019 Rise Set
Actual Time 7:52 AM EDT 6:44 PM EDT
Civil Twilight 7:22 AM EDT 7:13 PM EDT
Nautical Twilight 6:48 AM EDT 7:47 PM EDT
Astronomical Twilight 6:15 AM EDT 8:21 PM EDT
Moon 9:51 PM EDT (10/18) 12:32 PM EDT (10/18)
Length of Visible Light 11h 51m
Length of Day
10h 52m
Waning Gibbous, 79% of the Moon is Illuminated
Oct 18
Waning Gibbous
Oct 21
Last Quarter
Oct 27
New
Nov 4
First Quarter
Nov 12
Full

Hourly Weather History & Observations

Time (EDT) Temp. Windchill Dew Point Humidity Pressure Visibility Wind Dir Wind Speed Gust Speed Precip Events Conditions
12:17 AM 37.8 °F 32.5 °F 35.2 °F 91% 29.98 in 10.0 mi WNW 6.9 mph - N/A   Mostly Cloudy
12:35 AM 38.8 °F 33.8 °F 35.8 °F 89% 29.98 in 10.0 mi WNW 6.9 mph - N/A   Overcast
12:55 AM 39.2 °F 35.9 °F 36.1 °F 89% 29.97 in 10.0 mi WNW 4.6 mph - N/A   Overcast
1:15 AM 39.4 °F 35.2 °F 36.1 °F 88% 29.97 in 10.0 mi WNW 5.8 mph - N/A   Overcast
1:19 AM 39.4 °F 34.5 °F 36.1 °F 88% 29.97 in 10.0 mi NW 6.9 mph - N/A   Overcast
1:38 AM 39.6 °F 34.7 °F 36.5 °F 89% 29.98 in 10.0 mi NW 6.9 mph - N/A   Overcast
1:56 AM 40.1 °F 35.3 °F 36.5 °F 87% 29.98 in 10.0 mi NW 6.9 mph - N/A   Overcast
2:15 AM 40.3 °F 35.5 °F 36.7 °F 87% 29.99 in 10.0 mi NW 6.9 mph - N/A   Overcast
2:35 AM 40.6 °F 36.7 °F 36.9 °F 86% 30.00 in 10.0 mi NW 5.8 mph - N/A   Overcast
2:36 AM 40.6 °F 36.0 °F 36.9 °F 86% 30.00 in 10.0 mi WNW 6.9 mph - N/A   Overcast
2:59 AM 41.0 °F 37.1 °F 37.2 °F 86% 30.00 in 10.0 mi NW 5.8 mph - N/A   Overcast
3:17 AM 41.0 °F 37.1 °F 37.4 °F 87% 30.00 in 10.0 mi NW 5.8 mph - N/A   Overcast
3:35 AM 41.0 °F 37.1 °F 37.4 °F 87% 30.01 in 10.0 mi NW 5.8 mph - N/A   Overcast
3:55 AM 41.0 °F 38.0 °F 36.9 °F 85% 30.01 in 10.0 mi NW 4.6 mph - N/A   Overcast
3:56 AM 41.0 °F 38.0 °F 36.9 °F 85% 30.01 in 10.0 mi NW 4.6 mph - N/A   Overcast
4:15 AM 40.6 °F 37.5 °F 36.9 °F 86% 30.02 in 10.0 mi NW 4.6 mph - N/A   Overcast
4:20 AM 40.6 °F 37.5 °F 36.9 °F 86% 30.02 in 10.0 mi NW 4.6 mph - N/A   Overcast
4:38 AM 40.1 °F 36.9 °F 36.3 °F 86% 30.03 in 10.0 mi WNW 4.6 mph - N/A   Overcast
4:56 AM 39.4 °F 35.2 °F 36.0 °F 88% 30.03 in 10.0 mi NW 5.8 mph - N/A   Overcast
5:15 AM 38.3 °F 34.8 °F 35.2 °F 89% 30.04 in 10.0 mi WNW 4.6 mph - N/A   Mostly Cloudy
5:16 AM 38.1 °F 34.6 °F 35.1 °F 89% 30.04 in 10.0 mi WNW 4.6 mph - N/A   Mostly Cloudy
5:35 AM 36.9 °F 33.1 °F 34.3 °F 91% 30.05 in 10.0 mi WNW 4.6 mph - N/A   Scattered Clouds
5:59 AM 38.3 °F 35.9 °F 36.1 °F 92% 30.06 in 10.0 mi NNW 3.5 mph - N/A   Overcast
6:17 AM 38.7 °F 35.2 °F 36.5 °F 92% 30.07 in 10.0 mi NW 4.6 mph - N/A   Overcast
6:35 AM 39.2 °F 37.0 °F 36.5 °F 90% 30.06 in 10.0 mi NW 3.5 mph - N/A   Overcast
6:36 AM 39.2 °F 37.0 °F 36.5 °F 90% 30.06 in 10.0 mi NW 3.5 mph - N/A   Overcast
6:55 AM 39.2 °F - 36.1 °F 89% 30.07 in 10.0 mi Calm Calm - N/A   Overcast
7:15 AM 39.4 °F - 36.5 °F 89% 30.07 in 10.0 mi Calm Calm - N/A   Overcast
7:20 AM 39.4 °F - 36.5 °F 89% 30.07 in 10.0 mi Calm Calm - N/A   Overcast
7:38 AM 39.6 °F 36.3 °F 36.3 °F 88% 30.08 in 10.0 mi NW 4.6 mph - N/A   Overcast
7:56 AM 39.7 °F - 36.3 °F 88% 30.08 in 10.0 mi Calm Calm - N/A   Overcast
8:15 AM 39.9 °F - 36.1 °F 86% 30.08 in 10.0 mi Calm Calm - N/A   Overcast
8:16 AM 39.9 °F - 36.1 °F 86% 30.08 in 10.0 mi Calm Calm - N/A   Overcast
8:35 AM 40.3 °F - 36.7 °F 87% 30.09 in 10.0 mi Calm Calm - N/A   Overcast
8:36 AM 40.3 °F - 36.7 °F 87% 30.09 in 10.0 mi Calm Calm - N/A   Mostly Cloudy
8:59 AM 41.9 °F 40.0 °F 36.7 °F 82% 30.10 in 10.0 mi WNW 3.5 mph - N/A   Scattered Clouds
9:16 AM 42.8 °F 41.1 °F 37.0 °F 80% 30.10 in 10.0 mi NW 3.5 mph - N/A   Clear
9:35 AM 43.7 °F 42.1 °F 37.2 °F 78% 30.10 in 10.0 mi North 3.5 mph - N/A   Clear
9:36 AM 43.7 °F 42.1 °F 37.2 °F 78% 30.10 in 10.0 mi North 3.5 mph - N/A   Clear
9:55 AM 44.8 °F 42.4 °F 36.7 °F 73% 30.10 in 10.0 mi North 4.6 mph - N/A   Clear
9:56 AM 44.8 °F 43.3 °F 36.9 °F 74% 30.10 in 10.0 mi North 3.5 mph - N/A   Clear
10:15 AM 45.3 °F - 36.1 °F 70% 30.10 in 10.0 mi Calm Calm - N/A   Clear
10:38 AM 46.6 °F - 36.1 °F 67% 30.10 in 10.0 mi Calm Calm - N/A   Clear
10:55 AM 46.9 °F - 36.3 °F 67% 30.10 in 10.0 mi NNE 4.6 mph - N/A   Scattered Clouds
11:15 AM 48.4 °F - 36.7 °F 64% 30.10 in 10.0 mi NNE 3.5 mph - N/A   Scattered Clouds
11:35 AM 48.0 °F - 36.0 °F 63% 30.10 in 10.0 mi Calm Calm - N/A   Mostly Cloudy
11:59 AM 49.5 °F - 36.1 °F 60% 30.09 in 10.0 mi NE 3.5 mph - N/A   Mostly Cloudy
12:17 PM 49.5 °F - 35.2 °F 58% 30.08 in 10.0 mi Calm Calm - N/A   Mostly Cloudy
12:35 PM 50.0 °F - 36.9 °F 61% 30.09 in 10.0 mi East 3.5 mph - N/A   Scattered Clouds
12:36 PM 50.2 °F - 37.0 °F 61% 30.09 in 10.0 mi East 3.5 mph - N/A   Scattered Clouds
12:55 PM 50.4 °F - 37.6 °F 62% 30.08 in 10.0 mi ESE 3.5 mph - N/A   Clear
12:56 PM 50.4 °F - 37.4 °F 61% 30.08 in 10.0 mi ESE 3.5 mph - N/A   Scattered Clouds
1:15 PM 49.1 °F - 37.0 °F 63% 30.07 in 10.0 mi East 8.1 mph - N/A   Mostly Cloudy
1:38 PM 50.5 °F - 37.4 °F 61% 30.07 in 10.0 mi East 8.1 mph - N/A   Scattered Clouds
1:56 PM 49.3 °F - 36.9 °F 62% 30.07 in 10.0 mi ESE 8.1 mph - N/A   Scattered Clouds
2:15 PM 49.6 °F - 37.0 °F 62% 30.06 in 10.0 mi ESE 9.2 mph - N/A   Clear
2:35 PM 49.1 °F - 36.7 °F 62% 30.06 in 10.0 mi ESE 6.9 mph - N/A   Clear
2:36 PM 49.1 °F - 36.7 °F 62% 30.06 in 10.0 mi East 6.9 mph - N/A   Clear
2:59 PM 48.7 °F - 36.7 °F 63% 30.06 in 10.0 mi ESE 6.9 mph - N/A   Clear
3:17 PM 49.3 °F - 37.2 °F 63% 30.06 in 10.0 mi ESE 8.1 mph - N/A   Clear
3:35 PM 48.9 °F - 37.4 °F 64% 30.05 in 10.0 mi SE 8.1 mph - N/A   Clear
3:55 PM 48.2 °F - 37.2 °F 66% 30.05 in 10.0 mi ESE 8.1 mph - N/A   Clear
3:56 PM 48.2 °F - 37.2 °F 66% 30.05 in 10.0 mi ESE 6.9 mph - N/A   Clear
4:15 PM 48.7 °F - 37.2 °F 64% 30.04 in 10.0 mi SSE 6.9 mph - N/A   Clear
4:37 PM 48.0 °F - 36.7 °F 65% 30.04 in 10.0 mi SE 6.9 mph - N/A   Clear
4:56 PM 47.7 °F - 37.0 °F 67% 30.04 in 10.0 mi SSE 6.9 mph - N/A   Clear
5:15 PM 47.3 °F - 36.9 °F 67% 30.04 in 10.0 mi SSE 4.6 mph - N/A   Clear
5:16 PM 47.1 °F - 36.9 °F 68% 30.04 in 10.0 mi SSE 5.8 mph - N/A   Clear
5:35 PM 46.8 °F - 37.0 °F 69% 30.04 in 10.0 mi SSE 5.8 mph - N/A   Clear
5:36 PM 46.8 °F - 37.0 °F 69% 30.04 in 10.0 mi SSE 5.8 mph - N/A   Clear
5:58 PM 46.2 °F 44.1 °F 36.9 °F 70% 30.04 in 10.0 mi SSE 4.6 mph - N/A   Clear
6:17 PM 45.7 °F 44.4 °F 37.0 °F 72% 30.04 in 10.0 mi SSE 3.5 mph - N/A   Clear
6:35 PM 45.0 °F 43.5 °F 37.4 °F 75% 30.04 in 10.0 mi SSE 3.5 mph - N/A   Clear
6:55 PM 44.2 °F - 37.4 °F 77% 30.03 in 10.0 mi Calm Calm - N/A   Clear
6:56 PM 44.2 °F - 37.4 °F 77% 30.03 in 10.0 mi Calm Calm - N/A   Clear
7:15 PM 43.7 °F - 37.6 °F 79% 30.03 in 10.0 mi Calm Calm - N/A   Clear
7:38 PM 43.2 °F - 37.6 °F 81% 30.03 in 10.0 mi Calm Calm - N/A   Clear
7:56 PM 42.6 °F - 37.4 °F 82% 30.03 in 10.0 mi Calm Calm - N/A   Clear
8:15 PM 42.8 °F - 37.4 °F 81% 30.03 in 10.0 mi Calm Calm - N/A   Clear
8:16 PM 42.8 °F - 37.2 °F 81% 30.03 in 10.0 mi Calm Calm - N/A   Clear
8:35 PM 39.4 °F - 35.4 °F 86% 30.03 in 10.0 mi Calm Calm - N/A   Clear
8:59 PM 39.6 °F - 35.2 °F 85% 30.03 in 10.0 mi Calm Calm - N/A   Clear
9:35 PM 36.9 °F - 33.3 °F 87% 30.02 in 10.0 mi Calm Calm - N/A   Clear
9:36 PM 36.9 °F - 32.9 °F 86% 30.02 in 10.0 mi Calm Calm - N/A   Clear
9:55 PM 36.3 °F - 32.4 °F 86% 30.02 in 10.0 mi Calm Calm - N/A   Clear
10:15 PM 35.1 °F - 32.0 °F 89% 30.03 in 10.0 mi Calm Calm - N/A   Clear
10:38 PM 34.5 °F - 31.6 °F 89% 30.02 in 10.0 mi Calm Calm - N/A   Clear
10:55 PM 34.2 °F - 30.7 °F 87% 30.02 in 10.0 mi Calm Calm - N/A   Clear
11:15 PM 34.0 °F - 31.3 °F 90% 30.02 in 10.0 mi Calm Calm - N/A   Clear
11:35 PM 34.0 °F - 32.0 °F 92% 30.02 in 10.0 mi Calm Calm - N/A   Clear
11:59 PM 32.4 °F - 30.2 °F 92% 30.03 in 10.0 mi Calm Calm - N/A   Clear